Terminal Aerodrome Forecast
Issued by NWS

Home | Current Version | Previous Version | Text Only | Print | Product List | Glossary On
Versions: 1 2 3 4 5 6 7 8 9 10 11 12 13
000
FTUS44 KLIX 260500
TAFMCB
TAF
KMCB 260530Z 2606/2706 VRB02KT P6SM SCT250
     FM260800 00000KT 4SM BR SCT005
     FM261500 23005KT P6SM SCT045=

USA.gov is the U.S. government's official web portal to all federal, state and local government web resources and services.